createdAt,value
2018-07-04T00:01:21.307Z,100124.71
2018-07-04T00:04:01.391Z,100128.50
2018-07-04T00:06:41.483Z,100122.90
2018-07-04T00:09:21.604Z,100121.01
2018-07-04T00:12:01.817Z,100119.11
2018-07-04T00:14:42.309Z,100121.87
2018-07-04T00:17:22.517Z,100115.33
2018-07-04T00:20:02.632Z,100118.08
2018-07-04T00:22:42.802Z,100121.86
2018-07-04T00:25:23.348Z,100118.73
2018-07-04T00:28:03.437Z,100118.37
2018-07-04T00:30:43.740Z,100121.13
2018-07-04T00:33:24.457Z,100128.91
2018-07-04T00:36:04.572Z,100129.69
2018-07-04T00:38:45.029Z,100126.23
2018-07-04T00:41:25.218Z,100125.49
2018-07-04T00:44:05.384Z,100128.41
2018-07-04T00:46:45.630Z,100132.70
2018-07-04T00:49:26.113Z,100129.73
2018-07-04T00:52:06.309Z,100128.33
2018-07-04T00:54:46.375Z,100090.79
2018-07-04T00:57:26.534Z,100125.98
2018-07-04T01:00:06.686Z,100124.70
2018-07-04T01:02:47.196Z,100122.09
2018-07-04T01:05:27.249Z,100127.83
2018-07-04T01:08:07.393Z,100126.89
2018-07-04T01:10:47.471Z,100128.50
2018-07-04T01:13:30.385Z,100123.38
2018-07-04T01:16:10.482Z,100130.12
2018-07-04T01:18:50.635Z,100123.81
2018-07-04T01:21:31.122Z,100129.53
2018-07-04T01:24:11.225Z,100127.62
2018-07-04T01:26:51.616Z,100134.18
2018-07-04T01:29:31.990Z,100134.73
2018-07-04T01:32:12.242Z,100133.97
2018-07-04T01:34:52.542Z,100125.69
2018-07-04T01:37:37.459Z,100131.25
2018-07-04T01:40:17.593Z,100129.97
2018-07-04T01:42:57.859Z,100127.02
2018-07-04T01:45:38.396Z,100136.74
2018-07-04T01:48:18.601Z,100126.08
2018-07-04T01:50:58.822Z,100136.11
2018-07-04T01:53:39.089Z,100133.81
2018-07-04T01:56:19.793Z,100128.20
2018-07-04T01:59:00.354Z,100131.77
2018-07-04T02:01:40.509Z,100132.30
2018-07-04T02:04:20.702Z,100131.82
2018-07-04T02:07:01.216Z,100130.73
2018-07-04T02:09:41.271Z,100125.44
2018-07-04T02:12:21.499Z,100125.28
2018-07-04T02:15:01.598Z,100126.66
2018-07-04T02:17:41.732Z,100129.20
2018-07-04T02:20:22.179Z,100124.91
2018-07-04T02:23:02.394Z,100119.62
2018-07-04T02:25:42.467Z,100125.33
2018-07-04T02:28:22.799Z,100116.02
2018-07-04T02:31:03.189Z,100124.07
2018-07-04T02:33:43.741Z,100127.10
2018-07-04T02:36:23.933Z,100132.28
2018-07-04T02:39:05.292Z,100134.82
2018-07-04T02:41:45.526Z,100134.02
2018-07-04T02:44:25.625Z,100134.05
2018-07-04T02:47:06.153Z,100127.94
2018-07-04T02:49:46.313Z,100133.47
2018-07-04T02:52:26.489Z,100129.02
2018-07-04T02:55:06.631Z,100133.05
2018-07-04T02:57:47.011Z,100132.56
2018-07-04T03:00:27.414Z,100121.93
2018-07-04T03:03:07.598Z,100122.25
2018-07-04T03:05:47.984Z,100125.60
2018-07-04T03:08:28.151Z,100126.13
2018-07-04T03:11:08.417Z,100123.81
2018-07-04T03:13:48.522Z,100131.16
2018-07-04T03:16:28.621Z,100129.50
2018-07-04T03:19:08.710Z,100124.84
2018-07-04T03:21:49.021Z,100127.52
2018-07-04T03:24:29.275Z,100132.72
2018-07-04T03:27:09.362Z,100139.19
2018-07-04T03:29:49.480Z,100132.72
2018-07-04T03:32:29.982Z,100139.87
2018-07-04T03:35:10.240Z,100133.20
2018-07-04T03:37:50.497Z,100127.55
2018-07-04T03:40:31.137Z,100133.53
2018-07-04T03:43:11.281Z,100087.38
2018-07-04T03:45:51.493Z,100126.19
2018-07-04T03:48:31.750Z,100133.50
2018-07-04T03:51:12.100Z,100124.16
2018-07-04T03:53:52.270Z,100122.34
2018-07-04T03:56:32.323Z,100130.16
2018-07-04T03:59:12.713Z,100124.49
2018-07-04T04:01:52.942Z,100128.14
2018-07-04T04:04:33.490Z,100121.14
2018-07-04T04:07:13.656Z,100124.95
2018-07-04T04:09:54.278Z,100123.42
2018-07-04T04:12:34.461Z,100129.44
2018-07-04T04:15:14.689Z,100129.22
2018-07-04T04:17:55.152Z,100128.37
2018-07-04T04:20:35.286Z,100128.33
2018-07-04T04:23:15.882Z,100123.61
2018-07-04T04:25:56.305Z,100127.05
2018-07-04T04:28:36.365Z,100122.48
2018-07-04T04:31:16.488Z,100110.77
2018-07-04T04:33:56.602Z,100116.06
2018-07-04T04:36:37.141Z,100115.17
2018-07-04T04:39:17.233Z,100120.11
2018-07-04T04:41:57.341Z,100126.70
2018-07-04T04:44:37.580Z,100124.19
2018-07-04T04:47:17.690Z,100120.95
2018-07-04T04:49:57.742Z,100122.39
2018-07-04T04:52:38.276Z,100118.98
2018-07-04T04:55:18.464Z,100110.73
2018-07-04T04:57:58.565Z,100112.81
2018-07-04T05:00:38.829Z,100111.43
2018-07-04T05:03:19.568Z,100117.89
2018-07-04T05:05:59.658Z,100120.17
2018-07-04T05:08:40.161Z,100123.23
2018-07-04T05:11:20.433Z,100120.45
2018-07-04T05:14:00.531Z,100123.22
2018-07-04T05:16:40.587Z,100126.11
2018-07-04T05:19:20.802Z,100127.07
2018-07-04T05:22:01.312Z,100131.98
2018-07-04T05:24:41.413Z,100130.59
2018-07-04T05:27:21.533Z,100135.00
2018-07-04T05:30:02.695Z,100132.91
2018-07-04T05:32:43.437Z,100136.62
2018-07-04T05:35:23.698Z,100141.84
2018-07-04T05:38:04.081Z,100142.00
2018-07-04T05:40:44.200Z,100143.84
2018-07-04T05:43:24.276Z,100141.13
2018-07-04T05:46:04.427Z,100144.30
2018-07-04T05:48:44.997Z,100142.95
2018-07-04T05:51:25.369Z,100145.98
2018-07-04T05:54:05.737Z,100148.84
2018-07-04T05:56:46.254Z,100137.19
2018-07-04T05:59:26.482Z,100142.86
2018-07-04T06:02:06.597Z,100134.97
2018-07-04T06:04:46.769Z,100131.70
2018-07-04T06:07:27.206Z,100129.35
2018-07-04T06:10:07.269Z,100134.94
2018-07-04T06:12:49.387Z,100137.02
2018-07-04T06:15:29.433Z,100137.27
2018-07-04T06:18:09.913Z,100133.64
2018-07-04T06:20:50.086Z,100136.72
2018-07-04T06:23:30.373Z,100136.68
2018-07-04T06:26:10.863Z,100137.14
2018-07-04T06:28:51.198Z,100138.79
2018-07-04T06:31:31.272Z,100150.16
2018-07-04T06:34:11.497Z,100139.59
2018-07-04T06:36:51.546Z,100143.70
2018-07-04T06:39:19.565Z,100133.81
2018-07-04T06:41:47.487Z,100137.72
2018-07-04T06:44:15.700Z,100136.56
2018-07-04T06:46:43.962Z,100136.22
2018-07-04T06:49:12.031Z,100137.67
2018-07-04T06:51:40.180Z,100136.43
2018-07-04T06:54:08.221Z,100134.21
2018-07-04T06:56:36.454Z,100146.11
2018-07-04T06:59:04.378Z,100141.29
2018-07-04T07:01:32.486Z,100142.36
2018-07-04T07:04:12.705Z,100144.91
2018-07-04T07:06:53.153Z,100143.15
2018-07-04T07:09:33.508Z,100143.17
2018-07-04T07:12:13.586Z,100135.59
2018-07-04T07:14:53.931Z,100135.33
2018-07-04T07:17:34.277Z,100143.12
2018-07-04T07:20:14.529Z,100132.08
2018-07-04T07:22:54.628Z,100132.91
2018-07-04T07:25:34.778Z,100134.09
2018-07-04T07:28:16.713Z,100133.59
2018-07-04T07:30:57.543Z,100136.09
2018-07-04T07:33:37.693Z,100133.27
2018-07-04T07:36:18.234Z,100134.56
2018-07-04T07:38:58.479Z,100141.73
2018-07-04T07:41:38.734Z,100140.22
2018-07-04T07:44:19.285Z,100141.66
2018-07-04T07:46:59.549Z,100142.39
2018-07-04T07:49:39.590Z,100137.80
2018-07-04T07:52:19.827Z,100136.91
2018-07-04T07:55:00.262Z,100134.35
2018-07-04T07:57:40.389Z,100133.23
2018-07-04T08:00:20.421Z,100133.36
2018-07-04T08:03:00.590Z,100129.39
2018-07-04T08:05:40.808Z,100133.36
2018-07-04T08:08:20.929Z,100132.03
2018-07-04T08:11:01.705Z,100138.98
2018-07-04T08:13:41.921Z,100126.30
2018-07-04T08:16:22.221Z,100126.39
2018-07-04T08:19:02.297Z,100129.53
2018-07-04T08:21:42.461Z,100127.51
2018-07-04T08:24:22.543Z,100131.64
2018-07-04T08:27:02.797Z,100131.38
2018-07-04T08:29:43.337Z,100128.87
2018-07-04T08:32:23.413Z,100128.44
2018-07-04T08:35:03.668Z,100129.08
2018-07-04T08:37:44.025Z,100133.03
2018-07-04T08:40:24.235Z,100127.01
2018-07-04T08:43:04.426Z,100121.81
2018-07-04T08:45:44.531Z,100124.13
2018-07-04T08:48:24.614Z,100119.82
2018-07-04T08:51:04.705Z,100123.25
2018-07-04T08:53:45.655Z,100125.55
2018-07-04T08:56:26.436Z,100128.35
2018-07-04T08:59:06.492Z,100132.55
2018-07-04T09:01:46.993Z,100134.27
2018-07-04T09:04:27.133Z,100133.55
2018-07-04T09:07:07.518Z,100131.66
2018-07-04T09:09:47.581Z,100132.04
2018-07-04T09:12:27.815Z,100128.11
2018-07-04T09:15:08.253Z,100130.30
2018-07-04T09:17:48.818Z,100127.16
2018-07-04T09:20:29.154Z,100124.98
2018-07-04T09:23:09.355Z,100128.00
2018-07-04T09:25:49.430Z,100127.42
2018-07-04T09:28:29.574Z,100128.28
2018-07-04T09:31:09.622Z,100118.56
2018-07-04T09:33:49.995Z,100125.84
2018-07-04T09:36:32.358Z,100120.40
2018-07-04T09:39:13.258Z,100119.94
2018-07-04T09:41:53.326Z,100111.80
2018-07-04T09:44:33.466Z,100111.28
2018-07-04T09:47:13.867Z,100109.95
2018-07-04T09:49:54.228Z,100109.97
2018-07-04T09:52:34.483Z,100110.56
2018-07-04T09:55:14.813Z,100105.37
2018-07-04T09:57:55.692Z,100110.84
2018-07-04T10:00:40.078Z,100102.92
2018-07-04T10:03:20.205Z,100108.36
2018-07-04T10:06:00.357Z,100098.83
2018-07-04T10:08:40.477Z,100092.00
2018-07-04T10:11:20.689Z,100099.09
2018-07-04T10:14:01.037Z,100094.73
2018-07-04T10:16:43.696Z,100094.71
2018-07-04T10:19:24.725Z,100096.89
2018-07-04T10:22:05.443Z,100093.02
2018-07-04T10:24:45.968Z,100087.75
2018-07-04T10:27:26.252Z,100081.98
2018-07-04T10:30:06.507Z,100081.72
2018-07-04T10:32:46.726Z,100080.78
2018-07-04T10:35:27.382Z,100080.63
2018-07-04T10:38:07.531Z,100076.75
2018-07-04T10:40:48.033Z,100072.98
2018-07-04T10:43:28.218Z,100075.61
2018-07-04T10:46:08.525Z,100059.19
2018-07-04T10:48:48.657Z,100065.91
2018-07-04T10:51:28.867Z,100062.56
2018-07-04T10:54:09.389Z,100063.92
2018-07-04T10:56:49.593Z,100059.30
2018-07-04T10:59:31.860Z,100064.63
2018-07-04T11:02:12.527Z,100060.41
2018-07-04T11:04:52.954Z,100053.29
2018-07-04T11:07:33.245Z,100050.48
2018-07-04T11:10:13.567Z,100046.84
2018-07-04T11:12:53.786Z,100037.97
2018-07-04T11:15:34.372Z,100032.55
2018-07-04T11:18:14.560Z,100038.07
2018-07-04T11:20:54.865Z,100036.91
2018-07-04T11:23:35.289Z,100040.88
2018-07-04T11:26:15.787Z,100038.34
2018-07-04T11:28:56.361Z,100038.13
2018-07-04T11:31:36.465Z,100032.91
2018-07-04T11:34:16.975Z,100032.72
2018-07-04T11:36:57.416Z,100016.91
2018-07-04T11:39:37.657Z,100023.13
2018-07-04T11:42:18.723Z,100027.77
2018-07-04T11:44:59.442Z,100026.21
2018-07-04T11:47:27.422Z,100021.44
2018-07-04T11:49:55.833Z,100028.79
2018-07-04T11:52:23.976Z,100020.11
2018-07-04T11:55:16.217Z,100020.47
2018-07-04T11:57:44.571Z,100023.25
2018-07-04T12:00:12.563Z,100018.18
2018-07-04T12:02:40.522Z,100017.89
2018-07-04T12:05:20.802Z,100005.86
2018-07-04T12:07:49.024Z,100005.20
2018-07-04T12:10:17.149Z,100015.12
2018-07-04T12:12:45.110Z,100004.66
2018-07-04T12:15:13.091Z,100002.81
2018-07-04T12:17:41.113Z,100011.78
2018-07-04T12:20:09.077Z,99999.88
2018-07-04T12:22:37.177Z,100001.37
2018-07-04T12:25:05.203Z,99992.70
2018-07-04T12:27:33.212Z,99986.92
2018-07-04T12:30:01.703Z,99977.37
2018-07-04T12:32:30.188Z,99979.16
2018-07-04T12:34:58.247Z,99978.02
2018-07-04T12:37:26.309Z,99987.78
2018-07-04T12:39:56.089Z,99980.59
2018-07-04T12:42:25.750Z,99979.66
2018-07-04T12:44:56.398Z,99988.98
2018-07-04T12:47:26.258Z,99977.91
2018-07-04T12:49:55.785Z,99959.86
2018-07-04T12:52:23.851Z,99978.89
2018-07-04T12:55:04.229Z,99974.66
2018-07-04T12:57:45.113Z,99975.75
2018-07-04T13:00:25.366Z,99970.24
2018-07-04T13:03:05.668Z,99973.02
2018-07-04T13:05:46.270Z,99970.06
2018-07-04T13:08:26.525Z,99966.23
2018-07-04T13:11:06.835Z,99965.33
2018-07-04T13:13:47.513Z,99969.30
2018-07-04T13:16:27.656Z,99959.03
2018-07-04T13:19:08.046Z,99958.56
2018-07-04T13:21:48.168Z,99951.61
2018-07-04T13:24:28.586Z,99955.64
2018-07-04T13:27:08.834Z,99948.06
2018-07-04T13:29:49.465Z,99947.33
2018-07-04T13:32:29.596Z,99942.41
2018-07-04T13:35:11.632Z,99939.57
2018-07-04T13:37:51.872Z,99939.58
2018-07-04T13:40:32.138Z,99935.45
2018-07-04T13:43:12.558Z,99935.02
2018-07-04T13:45:53.386Z,99933.56
2018-07-04T13:48:33.619Z,99926.38
2018-07-04T13:51:13.945Z,99918.05
2018-07-04T13:53:54.483Z,99923.58
2018-07-04T13:56:34.953Z,99917.70
2018-07-04T13:59:15.610Z,99924.89
2018-07-04T14:01:55.814Z,99919.38
2018-07-04T14:04:36.757Z,99920.66
2018-07-04T14:07:17.349Z,99922.39
2018-07-04T14:09:57.495Z,99915.43
2018-07-04T14:12:37.694Z,99914.45
2018-07-04T14:15:17.776Z,99905.07
2018-07-04T14:17:58.249Z,99909.55
2018-07-04T14:20:38.446Z,99912.91
2018-07-04T14:23:18.736Z,99903.78
2018-07-04T14:25:59.305Z,99901.55
2018-07-04T14:28:39.576Z,99894.11
2018-07-04T14:31:19.950Z,99895.94
2018-07-04T14:34:00.395Z,99898.93
2018-07-04T14:36:40.633Z,99894.16
2018-07-04T14:39:20.790Z,99891.46
2018-07-04T14:42:01.419Z,99886.92
2018-07-04T14:44:41.770Z,99897.30
2018-07-04T14:47:22.280Z,99889.78
2018-07-04T14:50:02.560Z,99891.67
2018-07-04T14:52:42.858Z,99887.33
2018-07-04T14:55:23.370Z,99890.16
2018-07-04T14:58:03.487Z,99883.72
2018-07-04T15:00:43.625Z,99887.77
2018-07-04T15:03:23.851Z,99882.28
2018-07-04T15:06:04.368Z,99882.28
2018-07-04T15:08:44.894Z,99879.09
2018-07-04T15:11:25.257Z,99878.89
2018-07-04T15:14:05.444Z,99877.21
2018-07-04T15:16:45.574Z,99863.44
2018-07-04T15:19:26.273Z,99872.53
2018-07-04T15:22:07.062Z,99865.08
2018-07-04T15:24:47.367Z,99854.53
2018-07-04T15:27:27.825Z,99859.02
2018-07-04T15:30:08.190Z,99855.34
2018-07-04T15:32:48.288Z,99852.62
2018-07-04T15:35:28.398Z,99860.77
2018-07-04T15:38:08.704Z,99863.37
2018-07-04T15:40:48.996Z,99865.39
2018-07-04T15:43:29.359Z,99861.38
2018-07-04T15:46:09.601Z,99856.63
2018-07-04T15:48:49.880Z,99852.58
2018-07-04T15:51:30.201Z,99850.03
2018-07-04T15:54:10.547Z,99846.83
2018-07-04T15:56:50.822Z,99845.03
2018-07-04T15:59:31.579Z,99840.92
2018-07-04T16:02:12.149Z,99840.87
2018-07-04T16:04:52.398Z,99840.42
2018-07-04T16:07:32.643Z,99842.41
2018-07-04T16:10:13.055Z,99835.70
2018-07-04T16:12:53.411Z,99843.41
2018-07-04T16:15:33.765Z,99839.54
2018-07-04T16:18:14.214Z,99836.68
2018-07-04T16:20:54.724Z,99837.41
2018-07-04T16:23:35.332Z,99835.27
2018-07-04T16:26:15.771Z,99842.13
2018-07-04T16:28:56.470Z,99828.41
2018-07-04T16:31:36.778Z,99837.08
2018-07-04T16:34:17.531Z,99831.58
2018-07-04T16:36:58.000Z,99837.41
2018-07-04T16:39:38.434Z,99836.78
2018-07-04T16:42:18.914Z,99829.41
2018-07-04T16:44:59.959Z,99833.97
2018-07-04T16:47:40.331Z,99836.56
2018-07-04T16:50:20.591Z,99836.50
2018-07-04T16:53:00.900Z,99833.16
2018-07-04T16:55:41.264Z,99832.55
2018-07-04T16:58:21.578Z,99828.52
2018-07-04T17:01:01.885Z,99822.94
2018-07-04T17:03:42.463Z,99820.52
2018-07-04T17:06:22.765Z,99822.08
2018-07-04T17:09:03.445Z,99822.78
2018-07-04T17:11:43.738Z,99820.36
2018-07-04T17:14:23.965Z,99816.78
2018-07-04T17:17:04.197Z,99814.64
2018-07-04T17:19:44.380Z,99823.03
2018-07-04T17:22:24.736Z,99818.63
2018-07-04T17:25:11.536Z,99820.75
2018-07-04T17:27:51.740Z,99823.92
2018-07-04T17:30:32.373Z,99818.27
2018-07-04T17:33:12.727Z,99816.09
2018-07-04T17:35:53.317Z,99817.81
2018-07-04T17:38:33.781Z,99819.94
2018-07-04T17:41:14.821Z,99826.13
2018-07-04T17:43:55.293Z,99819.38
2018-07-04T17:46:35.493Z,99821.52
2018-07-04T17:49:16.141Z,99822.20
2018-07-04T17:51:56.381Z,99823.50
2018-07-04T17:54:37.723Z,99821.33
2018-07-04T17:57:18.547Z,99820.75
2018-07-04T17:59:58.643Z,99815.59
2018-07-04T18:02:39.212Z,99814.81
2018-07-04T18:05:19.309Z,99814.57
2018-07-04T18:07:59.682Z,99814.31
2018-07-04T18:10:40.039Z,99811.45
2018-07-04T18:13:20.318Z,99807.75
2018-07-04T18:16:00.558Z,99811.41
2018-07-04T18:18:40.684Z,99808.41
2018-07-04T18:21:26.726Z,99806.92
2018-07-04T18:24:08.649Z,99805.11
2018-07-04T18:26:49.043Z,99806.81
2018-07-04T18:29:29.233Z,99802.63
2018-07-04T18:32:09.565Z,99810.67
2018-07-04T18:34:52.429Z,99804.23
2018-07-04T18:37:32.796Z,99810.13
2018-07-04T18:40:13.311Z,99808.05
2018-07-04T18:42:53.486Z,99804.36
2018-07-04T18:45:33.831Z,99808.51
2018-07-04T18:48:14.101Z,99808.89
2018-07-04T18:50:54.551Z,99808.44
2018-07-04T18:53:34.609Z,99809.84
2018-07-04T18:56:15.177Z,99812.91
2018-07-04T18:58:55.323Z,99802.54
2018-07-04T19:01:35.610Z,99816.02
2018-07-04T19:04:15.673Z,99817.98
2018-07-04T19:06:55.761Z,99819.11
2018-07-04T19:09:36.089Z,99814.78
2018-07-04T19:12:16.253Z,99817.81
2018-07-04T19:14:56.629Z,99824.12
2018-07-04T19:17:37.715Z,99823.61
2018-07-04T19:20:18.525Z,99825.56
2018-07-04T19:22:58.693Z,99824.42
2018-07-04T19:25:39.232Z,99823.09
2018-07-04T19:28:19.629Z,99825.81
2018-07-04T19:30:59.987Z,99822.80
2018-07-04T19:33:40.357Z,99822.25
2018-07-04T19:36:27.585Z,99826.55
2018-07-04T19:39:08.117Z,99828.41
2018-07-04T19:41:49.494Z,99826.48
2018-07-04T19:44:30.055Z,99824.86
2018-07-04T19:47:10.460Z,99833.82
2018-07-04T19:49:50.977Z,99831.88
2018-07-04T19:52:31.227Z,99835.06
2018-07-04T19:55:11.609Z,99837.16
2018-07-04T19:57:53.521Z,99824.01
2018-07-04T20:00:33.985Z,99833.71
2018-07-04T20:03:14.229Z,99841.77
2018-07-04T20:05:54.354Z,99839.79
2018-07-04T20:08:34.579Z,99852.73
2018-07-04T20:11:15.417Z,99839.75
2018-07-04T20:13:55.718Z,99841.23
2018-07-04T20:16:36.293Z,99841.14
2018-07-04T20:19:16.667Z,99842.91
2018-07-04T20:21:56.955Z,99842.34
2018-07-04T20:24:37.538Z,99841.67
2018-07-04T20:27:18.147Z,99835.44
2018-07-04T20:29:58.215Z,99839.11
2018-07-04T20:32:38.594Z,99830.27
2018-07-04T20:35:18.959Z,99836.20
2018-07-04T20:37:59.053Z,99832.70
2018-07-04T20:40:39.945Z,99829.09
2018-07-04T20:43:20.307Z,99828.34
2018-07-04T20:46:00.772Z,99830.11
2018-07-04T20:48:41.270Z,99828.52
2018-07-04T20:51:21.332Z,99835.20
2018-07-04T20:54:01.583Z,99834.06
2018-07-04T20:56:41.889Z,99839.84
2018-07-04T20:59:22.502Z,99838.12
2018-07-04T21:02:02.780Z,99841.34
2018-07-04T21:04:43.209Z,99832.28
2018-07-04T21:07:23.298Z,99835.69
2018-07-04T21:10:03.557Z,99832.08
2018-07-04T21:12:43.660Z,99844.06
2018-07-04T21:15:23.793Z,99836.83
2018-07-04T21:18:04.167Z,99845.09
2018-07-04T21:20:44.410Z,99836.76
2018-07-04T21:23:25.625Z,99834.95
2018-07-04T21:26:06.335Z,99839.30
2018-07-04T21:28:46.508Z,99838.61
2018-07-04T21:31:26.648Z,99839.86
2018-07-04T21:34:07.077Z,99840.05
2018-07-04T21:36:47.333Z,99841.48
2018-07-04T21:39:27.470Z,99841.09
2018-07-04T21:42:07.557Z,99839.41
2018-07-04T21:44:47.600Z,99827.66
2018-07-04T21:47:27.833Z,99842.41
2018-07-04T21:50:08.148Z,99841.48
2018-07-04T21:52:48.225Z,99837.91
2018-07-04T21:55:28.421Z,99839.66
2018-07-04T21:58:08.527Z,99836.08
2018-07-04T22:00:49.204Z,99837.00
2018-07-04T22:03:29.490Z,99832.83
2018-07-04T22:06:12.215Z,99837.53
2018-07-04T22:08:52.337Z,99840.87
2018-07-04T22:11:32.426Z,99848.56
2018-07-04T22:14:12.542Z,99839.05
2018-07-04T22:16:52.603Z,99838.55
2018-07-04T22:19:33.139Z,99840.02
2018-07-04T22:22:13.213Z,99839.31
2018-07-04T22:24:53.473Z,99841.05
2018-07-04T22:27:33.577Z,99842.77
2018-07-04T22:30:13.789Z,99843.70
2018-07-04T22:32:53.854Z,99845.38
2018-07-04T22:35:34.217Z,99848.69
2018-07-04T22:38:14.405Z,99851.09
2018-07-04T22:40:54.514Z,99846.86
2018-07-04T22:43:34.891Z,99837.50
2018-07-04T22:46:15.205Z,99840.35
2018-07-04T22:48:58.006Z,99840.00
2018-07-04T22:51:38.240Z,99834.47
2018-07-04T22:54:18.496Z,99836.73
2018-07-04T22:56:58.567Z,99834.10
2018-07-04T22:59:38.746Z,99832.73
2018-07-04T23:02:19.145Z,99835.44
2018-07-04T23:04:59.335Z,99830.89
2018-07-04T23:07:39.418Z,99828.50
2018-07-04T23:10:19.525Z,99838.88
2018-07-04T23:12:59.638Z,99829.76
2018-07-04T23:15:39.682Z,99830.05
2018-07-04T23:18:20.105Z,99827.26
2018-07-04T23:21:00.305Z,99826.30
2018-07-04T23:23:40.413Z,99825.00
2018-07-04T23:26:20.441Z,99834.35
2018-07-04T23:29:00.678Z,99830.12
2018-07-04T23:31:43.413Z,99832.95
2018-07-04T23:34:23.634Z,99834.05
2018-07-04T23:37:04.677Z,99834.93
2018-07-04T23:39:45.338Z,99835.30
2018-07-04T23:42:25.462Z,99831.55
2018-07-04T23:45:05.778Z,99832.58
2018-07-04T23:47:46.214Z,99832.83
2018-07-04T23:50:26.637Z,99827.41
2018-07-04T23:53:06.801Z,99826.64
2018-07-04T23:55:47.233Z,99830.59
2018-07-04T23:58:27.281Z,99825.55
